createdAt,value
2022-09-28T00:00:11.338Z,58.05
2022-09-28T00:02:44.642Z,58.00
2022-09-28T00:05:22.471Z,58.17
2022-09-28T00:07:51.974Z,57.78
2022-09-28T00:10:26.670Z,58.08
2022-09-28T00:13:04.607Z,58.07
2022-09-28T00:15:35.680Z,57.97
2022-09-28T00:18:03.690Z,58.07
2022-09-28T00:20:30.576Z,57.96
2022-09-28T00:23:00.030Z,58.32
2022-09-28T00:25:30.197Z,57.90
2022-09-28T00:28:05.578Z,58.08
2022-09-28T00:30:32.450Z,58.23
2022-09-28T00:33:03.589Z,57.82
2022-09-28T00:35:32.432Z,58.18
2022-09-28T00:37:59.301Z,58.29
2022-09-28T00:40:28.934Z,57.98
2022-09-28T00:42:56.600Z,58.26
2022-09-28T00:45:32.039Z,58.21
2022-09-28T00:48:00.467Z,57.80
2022-09-28T00:50:38.651Z,58.29
2022-09-28T00:53:37.251Z,58.16
2022-09-28T00:56:20.759Z,58.36
2022-09-28T00:59:17.384Z,58.44
2022-09-28T01:01:51.625Z,57.77
2022-09-28T01:04:20.423Z,57.82
2022-09-28T01:06:59.139Z,58.08
2022-09-28T01:09:55.497Z,57.99
2022-09-28T01:12:24.097Z,57.79
2022-09-28T01:14:53.166Z,58.41
2022-09-28T01:17:30.668Z,58.13
2022-09-28T01:20:26.184Z,58.09
2022-09-28T01:23:42.100Z,58.48
2022-09-28T01:26:27.693Z,58.23
2022-09-28T01:29:03.260Z,58.17
2022-09-28T01:31:41.750Z,58.40
2022-09-28T01:34:43.204Z,57.98
2022-09-28T01:37:35.061Z,58.17
2022-09-28T01:40:05.964Z,58.12
2022-09-28T01:42:37.084Z,57.70
2022-09-28T01:45:38.509Z,58.31
2022-09-28T01:48:14.231Z,58.22
2022-09-28T01:50:49.367Z,58.14
2022-09-28T01:53:51.810Z,58.30
2022-09-28T01:56:42.753Z,57.75
2022-09-28T01:59:43.168Z,58.19
2022-09-28T02:02:39.527Z,58.50
2022-09-28T02:05:42.789Z,58.01
2022-09-28T02:08:53.365Z,58.32
2022-09-28T02:11:32.243Z,58.42
2022-09-28T02:14:07.448Z,58.59
2022-09-28T02:17:08.697Z,58.51
2022-09-28T02:19:37.460Z,58.03
2022-09-28T02:22:42.732Z,58.58
2022-09-28T02:25:35.497Z,57.92
2022-09-28T02:28:28.787Z,58.35
2022-09-28T02:31:04.189Z,58.30
2022-09-28T02:34:02.979Z,58.33
2022-09-28T02:39:19.249Z,58.05
2022-09-28T02:42:36.200Z,58.10
2022-09-28T02:45:20.493Z,58.20
2022-09-28T02:48:27.180Z,58.57
2022-09-28T02:51:06.376Z,58.36
2022-09-28T02:54:09.312Z,58.26
2022-09-28T02:57:14.491Z,58.06
2022-09-28T02:59:50.677Z,58.18
2022-09-28T03:02:37.899Z,58.22
2022-09-28T03:05:19.994Z,58.34
2022-09-28T03:08:13.675Z,58.25
2022-09-28T03:10:55.749Z,58.18
2022-09-28T03:13:23.781Z,58.32
2022-09-28T03:15:50.593Z,58.22
2022-09-28T03:18:22.779Z,58.66
2022-09-28T03:21:06.894Z,58.62
2022-09-28T03:23:41.650Z,58.50
2022-09-28T03:26:42.987Z,58.40
2022-09-28T03:29:15.851Z,58.26
2022-09-28T03:31:49.091Z,58.29
2022-09-28T03:34:16.105Z,58.46
2022-09-28T03:36:43.122Z,58.58
2022-09-28T03:39:10.132Z,58.49
2022-09-28T03:41:37.017Z,58.25
2022-09-28T03:44:03.967Z,58.70
2022-09-28T03:46:35.429Z,58.28
2022-09-28T03:49:03.769Z,58.29
2022-09-28T03:51:30.712Z,58.69
2022-09-28T03:53:57.664Z,58.34
2022-09-28T03:56:30.210Z,58.22
2022-09-28T03:59:06.251Z,58.45
2022-09-28T04:01:39.666Z,58.39
2022-09-28T04:04:14.668Z,58.49
2022-09-28T04:06:46.955Z,58.79
2022-09-28T04:09:16.977Z,58.68
2022-09-28T04:14:29.875Z,58.40
2022-09-28T04:16:57.274Z,58.38
2022-09-28T04:19:25.830Z,58.57
2022-09-28T04:22:04.508Z,59.00
2022-09-28T04:24:34.949Z,58.59
2022-09-28T04:27:21.962Z,58.44
2022-09-28T04:29:54.504Z,58.38
2022-09-28T04:32:22.178Z,58.79
2022-09-28T04:34:49.040Z,58.38
2022-09-28T04:37:16.069Z,58.76
2022-09-28T04:39:47.480Z,58.46
2022-09-28T04:42:15.883Z,58.27
2022-09-28T04:44:42.741Z,58.84
2022-09-28T04:47:10.077Z,58.29
2022-09-28T04:49:38.451Z,58.61
2022-09-28T04:52:06.149Z,58.43
2022-09-28T04:54:33.122Z,58.21
2022-09-28T04:57:00.064Z,58.72
2022-09-28T04:59:27.048Z,58.91
2022-09-28T05:01:54.270Z,58.44
2022-09-28T05:04:25.575Z,58.24
2022-09-28T05:06:52.887Z,58.49
2022-09-28T05:09:19.904Z,58.86
2022-09-28T05:11:49.466Z,58.34
2022-09-28T05:14:16.794Z,58.50
2022-09-28T05:16:44.827Z,58.41
2022-09-28T05:19:12.509Z,58.72
2022-09-28T05:21:39.455Z,58.70
2022-09-28T05:24:07.767Z,58.44
2022-09-28T05:26:34.868Z,58.48
2022-09-28T05:29:01.847Z,58.75
2022-09-28T05:31:29.028Z,58.71
2022-09-28T05:33:56.140Z,58.75
2022-09-28T05:36:23.943Z,58.55
2022-09-28T05:38:51.255Z,58.51
2022-09-28T05:41:18.175Z,58.67
2022-09-28T05:43:45.751Z,58.37
2022-09-28T05:46:12.773Z,58.88
2022-09-28T05:48:39.598Z,58.66
2022-09-28T05:51:06.966Z,58.69
2022-09-28T05:53:33.836Z,58.74
2022-09-28T05:56:01.123Z,58.92
2022-09-28T05:58:28.455Z,58.80
2022-09-28T06:00:56.689Z,58.49
2022-09-28T06:03:24.281Z,58.72
2022-09-28T06:05:51.260Z,58.59
2022-09-28T06:08:18.323Z,58.73
2022-09-28T06:10:45.275Z,58.81
2022-09-28T06:13:12.418Z,58.68
2022-09-28T06:15:42.703Z,58.64
2022-09-28T06:18:14.875Z,58.89
2022-09-28T06:20:42.171Z,58.80
2022-09-28T06:23:10.491Z,58.50
2022-09-28T06:25:37.805Z,59.23
2022-09-28T06:28:07.004Z,58.76
2022-09-28T06:30:38.245Z,58.66
2022-09-28T06:33:07.859Z,58.54
2022-09-28T06:35:35.457Z,58.86
2022-09-28T06:38:02.957Z,59.09
2022-09-28T06:40:30.464Z,59.12
2022-09-28T06:43:03.219Z,58.91
2022-09-28T06:45:30.574Z,58.69
2022-09-28T06:48:01.425Z,59.05
2022-09-28T06:50:34.313Z,58.50
2022-09-28T06:53:01.678Z,58.78
2022-09-28T06:55:29.156Z,58.84
2022-09-28T06:58:01.230Z,58.69
2022-09-28T07:00:31.180Z,58.89
2022-09-28T07:02:57.962Z,59.08
2022-09-28T07:05:27.504Z,58.72
2022-09-28T07:07:57.463Z,58.72
2022-09-28T07:10:27.805Z,58.96
2022-09-28T07:12:56.892Z,58.79
2022-09-28T07:15:24.993Z,58.69
2022-09-28T07:18:03.319Z,58.69
2022-09-28T07:20:39.222Z,58.83
2022-09-28T07:23:19.385Z,58.75
2022-09-28T07:25:50.286Z,58.84
2022-09-28T07:28:17.501Z,59.00
2022-09-28T07:30:44.773Z,58.85
2022-09-28T07:33:14.608Z,58.94
2022-09-28T07:35:43.050Z,58.68
2022-09-28T07:38:10.929Z,58.87
2022-09-28T07:40:56.268Z,59.13
2022-09-28T07:43:23.348Z,58.67
2022-09-28T07:45:56.995Z,58.57
2022-09-28T07:48:23.961Z,58.96
2022-09-28T07:50:56.890Z,59.00
2022-09-28T07:53:25.538Z,58.79
2022-09-28T07:55:53.095Z,58.90
2022-09-28T07:58:20.837Z,59.25
2022-09-28T08:00:49.413Z,59.14
2022-09-28T08:03:17.522Z,58.99
2022-09-28T08:05:46.971Z,58.79
2022-09-28T08:08:15.127Z,58.78
2022-09-28T08:10:46.944Z,58.83
2022-09-28T08:13:15.221Z,58.68
2022-09-28T08:15:42.628Z,58.70
2022-09-28T08:18:10.162Z,58.99
2022-09-28T08:20:56.036Z,59.00
2022-09-28T08:23:23.619Z,58.72
2022-09-28T08:25:54.224Z,58.75
2022-09-28T08:28:22.673Z,59.10
2022-09-28T08:30:50.234Z,58.61
2022-09-28T08:33:20.370Z,58.66
2022-09-28T08:35:48.290Z,58.94
2022-09-28T08:38:15.443Z,58.99
2022-09-28T08:41:00.527Z,58.99
2022-09-28T08:43:55.919Z,58.57
2022-09-28T08:46:27.220Z,58.72
2022-09-28T08:49:30.642Z,58.97
2022-09-28T08:52:03.582Z,58.91
2022-09-28T08:54:54.562Z,59.05
2022-09-28T08:57:27.631Z,58.62
2022-09-28T08:59:57.088Z,58.71
2022-09-28T09:02:29.158Z,58.71
2022-09-28T09:04:57.990Z,59.18
2022-09-28T09:07:43.393Z,59.20
2022-09-28T09:10:42.682Z,58.66
2022-09-28T09:13:37.713Z,58.90
2022-09-28T09:16:23.224Z,58.54
2022-09-28T09:19:25.390Z,58.50
2022-09-28T09:22:03.149Z,58.79
2022-09-28T09:24:30.543Z,58.88
2022-09-28T09:27:06.648Z,58.90
2022-09-28T09:29:51.681Z,59.02
2022-09-28T09:32:41.329Z,58.93
2022-09-28T09:35:37.530Z,58.58
2022-09-28T09:38:19.455Z,58.89
2022-09-28T09:41:09.693Z,59.15
2022-09-28T09:44:02.059Z,58.94
2022-09-28T09:46:39.673Z,59.00
2022-09-28T09:49:28.691Z,58.66
2022-09-28T09:52:27.025Z,58.56
2022-09-28T09:55:02.422Z,58.98
2022-09-28T09:57:42.893Z,58.56
2022-09-28T10:00:14.981Z,58.54
2022-09-28T10:02:44.790Z,58.96
2022-09-28T10:05:11.635Z,58.79
2022-09-28T10:07:49.642Z,58.98
2022-09-28T10:10:25.505Z,58.59
2022-09-28T10:12:53.216Z,58.75
2022-09-28T10:15:25.142Z,58.80
2022-09-28T10:17:58.418Z,58.76
2022-09-28T10:20:25.638Z,58.75
2022-09-28T10:22:56.179Z,58.91
2022-09-28T10:25:24.309Z,58.88
2022-09-28T10:27:52.662Z,58.54
2022-09-28T10:30:25.407Z,58.61
2022-09-28T10:32:59.094Z,59.02
2022-09-28T10:35:31.242Z,58.51
2022-09-28T10:37:59.946Z,58.63
2022-09-28T10:40:30.236Z,58.89
2022-09-28T10:43:07.180Z,58.96
2022-09-28T10:45:36.994Z,58.65
2022-09-28T10:48:13.615Z,58.79
2022-09-28T10:50:41.397Z,58.72
2022-09-28T10:53:22.074Z,58.34
2022-09-28T10:55:59.346Z,58.38
2022-09-28T10:58:29.989Z,58.68
2022-09-28T11:01:03.666Z,58.64
2022-09-28T11:03:31.615Z,58.61
2022-09-28T11:06:03.253Z,58.37
2022-09-28T11:08:44.550Z,58.48
2022-09-28T11:11:17.105Z,58.53
2022-09-28T11:13:47.528Z,58.47
2022-09-28T11:16:20.075Z,58.53
2022-09-28T11:18:47.334Z,58.45
2022-09-28T11:21:17.182Z,58.73
2022-09-28T11:24:19.474Z,58.45
2022-09-28T11:26:49.842Z,58.36
2022-09-28T11:29:22.236Z,58.71
2022-09-28T11:31:49.555Z,58.76
2022-09-28T11:34:47.825Z,58.33
2022-09-28T11:37:33.709Z,58.35
2022-09-28T11:40:45.356Z,58.34
2022-09-28T11:43:16.805Z,58.51
2022-09-28T11:45:51.905Z,58.61
2022-09-28T11:48:24.602Z,58.70
2022-09-28T11:51:06.074Z,58.60
2022-09-28T11:54:14.433Z,58.44
2022-09-28T11:56:48.712Z,58.63
2022-09-28T11:59:33.294Z,58.62
2022-09-28T12:02:23.383Z,58.75
2022-09-28T12:05:15.832Z,58.46
2022-09-28T12:07:54.659Z,58.62
2022-09-28T12:10:28.193Z,58.35
2022-09-28T12:13:08.232Z,58.59
2022-09-28T12:16:22.967Z,58.27
2022-09-28T12:18:36.752Z,58.58
2022-09-28T12:21:14.713Z,58.51
2022-09-28T12:23:43.532Z,58.18
2022-09-28T12:26:37.201Z,58.14
2022-09-28T12:29:13.599Z,58.09
2022-09-28T12:32:07.432Z,58.36
2022-09-28T12:34:34.236Z,58.28
2022-09-28T12:37:29.955Z,58.24
2022-09-28T12:40:09.159Z,58.51
2022-09-28T12:42:55.429Z,58.11
2022-09-28T12:45:28.622Z,58.33
2022-09-28T12:48:17.208Z,58.43
2022-09-28T12:50:57.523Z,58.49
2022-09-28T12:53:43.477Z,58.44
2022-09-28T12:56:24.938Z,58.47
2022-09-28T12:59:06.914Z,58.42
2022-09-28T13:02:14.110Z,58.24
2022-09-28T13:04:53.124Z,58.35
2022-09-28T13:07:29.239Z,58.05
2022-09-28T13:10:16.767Z,58.28
2022-09-28T13:13:16.010Z,58.17
2022-09-28T13:15:46.481Z,58.29
2022-09-28T13:18:42.222Z,58.31
2022-09-28T13:21:28.263Z,58.41
2022-09-28T13:24:14.507Z,58.36
2022-09-28T13:26:47.907Z,58.47
2022-09-28T13:29:19.053Z,58.50
2022-09-28T13:31:50.617Z,58.23
2022-09-28T13:34:29.664Z,58.04
2022-09-28T13:37:16.868Z,58.32
2022-09-28T13:40:06.183Z,58.33
2022-09-28T13:42:45.117Z,58.17
2022-09-28T13:45:30.719Z,58.12
2022-09-28T13:48:11.622Z,57.98
2022-09-28T13:50:44.472Z,57.84
2022-09-28T13:53:29.539Z,57.82
2022-09-28T13:56:03.918Z,57.79
2022-09-28T13:58:44.282Z,58.08
2022-09-28T14:01:30.505Z,58.01
2022-09-28T14:04:20.522Z,58.19
2022-09-28T14:07:10.618Z,57.70
2022-09-28T14:10:02.673Z,58.07
2022-09-28T14:12:35.496Z,58.08
2022-09-28T14:15:26.488Z,57.70
2022-09-28T14:18:10.149Z,58.01
2022-09-28T14:20:37.388Z,57.96
2022-09-28T14:23:34.690Z,57.88
2022-09-28T14:26:41.788Z,57.81
2022-09-28T14:29:39.167Z,57.54
2022-09-28T14:32:23.945Z,57.55
2022-09-28T14:35:04.705Z,57.96
2022-09-28T14:37:52.565Z,57.55
2022-09-28T14:40:42.892Z,57.91
2022-09-28T14:43:27.013Z,57.51
2022-09-28T14:46:14.414Z,57.91
2022-09-28T14:48:50.835Z,58.04
2022-09-28T14:51:26.881Z,57.85
2022-09-28T14:54:00.311Z,57.57
2022-09-28T14:56:34.213Z,57.53
2022-09-28T14:59:01.339Z,57.58
2022-09-28T15:01:28.260Z,57.83
2022-09-28T15:03:59.491Z,57.80
2022-09-28T15:06:29.585Z,57.46
2022-09-28T15:08:56.501Z,57.80
2022-09-28T15:11:26.287Z,57.53
2022-09-28T15:14:07.249Z,57.49
2022-09-28T15:16:34.151Z,57.74
2022-09-28T15:19:01.458Z,57.83
2022-09-28T15:21:34.501Z,57.67
2022-09-28T15:24:01.638Z,57.82
2022-09-28T15:26:33.195Z,57.45
2022-09-28T15:29:03.480Z,57.69
2022-09-28T15:31:35.618Z,57.91
2022-09-28T15:34:21.007Z,57.96
2022-09-28T15:36:48.089Z,57.68
2022-09-28T15:39:34.859Z,57.97
2022-09-28T15:42:02.248Z,57.87
2022-09-28T15:44:37.391Z,57.53
2022-09-28T15:47:08.498Z,57.92
2022-09-28T15:49:41.367Z,57.58
2022-09-28T15:52:23.948Z,57.58
2022-09-28T15:54:51.146Z,57.67
2022-09-28T15:57:35.883Z,57.73
2022-09-28T16:00:25.347Z,57.76
2022-09-28T16:03:00.441Z,57.91
2022-09-28T16:05:40.974Z,57.81
2022-09-28T16:08:34.308Z,57.86
2022-09-28T16:11:17.110Z,57.84
2022-09-28T16:14:01.747Z,57.77
2022-09-28T16:16:46.724Z,57.74
2022-09-28T16:19:26.114Z,58.22
2022-09-28T16:21:55.939Z,57.87
2022-09-28T16:24:30.399Z,57.98
2022-09-28T16:27:03.750Z,58.12
2022-09-28T16:29:40.200Z,58.25
2022-09-28T16:32:25.492Z,57.75
2022-09-28T16:35:13.673Z,58.01
2022-09-28T16:37:42.782Z,58.08
2022-09-28T16:40:10.911Z,57.98
2022-09-28T16:42:48.074Z,58.01
2022-09-28T16:45:25.955Z,58.00
2022-09-28T16:47:56.464Z,57.94
2022-09-28T16:50:24.557Z,57.80
2022-09-28T16:53:31.565Z,58.05
2022-09-28T16:55:59.939Z,58.13
2022-09-28T16:58:27.874Z,58.11
2022-09-28T17:00:55.672Z,57.79
2022-09-28T17:03:25.752Z,58.22
2022-09-28T17:05:53.654Z,57.92
2022-09-28T17:08:22.456Z,58.10
2022-09-28T17:11:22.785Z,58.08
2022-09-28T17:13:49.241Z,58.10
2022-09-28T17:19:23.345Z,57.97
2022-09-28T17:21:51.855Z,57.70
2022-09-28T17:24:20.110Z,57.88
2022-09-28T17:26:50.330Z,58.06
2022-09-28T17:29:17.725Z,58.00
2022-09-28T17:31:46.095Z,57.95
2022-09-28T17:34:16.312Z,57.78
2022-09-28T17:36:44.274Z,58.26
2022-09-28T17:39:16.592Z,58.10
2022-09-28T17:41:43.607Z,58.19
2022-09-28T17:44:11.101Z,57.96
2022-09-28T17:46:40.825Z,57.92
2022-09-28T17:49:11.598Z,57.80
2022-09-28T17:51:38.720Z,58.23
2022-09-28T17:54:08.199Z,58.10
2022-09-28T17:56:36.024Z,57.91
2022-09-28T17:59:06.712Z,57.91
2022-09-28T18:01:34.833Z,57.87
2022-09-28T18:04:04.979Z,58.31
2022-09-28T18:06:33.788Z,57.82
2022-09-28T18:09:03.221Z,57.92
2022-09-28T18:11:32.139Z,58.01
2022-09-28T18:13:59.128Z,58.08
2022-09-28T18:16:27.998Z,57.97
2022-09-28T18:18:55.103Z,57.83
2022-09-28T18:21:22.063Z,58.07
2022-09-28T18:23:49.126Z,58.18
2022-09-28T18:26:18.994Z,57.98
2022-09-28T18:28:46.534Z,58.09
2022-09-28T18:31:15.412Z,57.93
2022-09-28T18:33:43.378Z,58.30
2022-09-28T18:36:10.386Z,58.17
2022-09-28T18:38:38.277Z,58.28
2022-09-28T18:41:16.854Z,58.39
2022-09-28T18:43:51.515Z,58.40
2022-09-28T18:46:18.765Z,58.32
2022-09-28T18:48:47.735Z,58.26
2022-09-28T18:51:14.923Z,58.35
2022-09-28T18:53:41.844Z,58.09
2022-09-28T18:56:13.029Z,58.15
2022-09-28T18:58:41.633Z,58.42
2022-09-28T19:01:29.355Z,58.15
2022-09-28T19:04:06.260Z,58.07
2022-09-28T19:06:34.405Z,58.37
2022-09-28T19:09:01.817Z,58.32
2022-09-28T19:11:28.839Z,58.49
2022-09-28T19:13:56.571Z,58.28
2022-09-28T19:16:28.758Z,58.24
2022-09-28T19:18:57.560Z,58.18
2022-09-28T19:21:25.614Z,58.62
2022-09-28T19:23:55.110Z,58.42
2022-09-28T19:26:27.444Z,58.07
2022-09-28T19:28:56.228Z,58.19
2022-09-28T19:31:23.830Z,58.25
2022-09-28T19:33:50.851Z,58.33
2022-09-28T19:36:21.973Z,58.36
2022-09-28T19:38:49.249Z,58.22
2022-09-28T19:41:39.503Z,58.61
2022-09-28T19:44:30.994Z,58.05
2022-09-28T19:47:07.537Z,58.32
2022-09-28T19:49:40.022Z,58.25
2022-09-28T19:52:15.945Z,58.54
2022-09-28T19:54:57.807Z,57.96
2022-09-28T19:57:30.270Z,57.97
2022-09-28T20:00:02.086Z,58.10
2022-09-28T20:02:30.079Z,58.56
2022-09-28T20:04:57.165Z,57.83
2022-09-28T20:07:24.226Z,58.34
2022-09-28T20:09:51.753Z,58.14
2022-09-28T20:12:18.885Z,58.14
2022-09-28T20:14:45.889Z,58.14
2022-09-28T20:17:12.950Z,58.14
2022-09-28T20:19:39.890Z,58.22
2022-09-28T20:22:06.834Z,57.95
2022-09-28T20:24:33.969Z,58.27
2022-09-28T20:27:01.607Z,58.16
2022-09-28T20:29:31.700Z,58.43
2022-09-28T20:31:59.091Z,58.42
2022-09-28T20:34:26.162Z,58.18
2022-09-28T20:36:53.116Z,58.55
2022-09-28T20:39:20.834Z,58.52
2022-09-28T20:41:49.110Z,58.54
2022-09-28T20:44:16.495Z,58.27
2022-09-28T20:46:46.472Z,58.58
2022-09-28T20:49:13.486Z,58.25
2022-09-28T20:51:40.342Z,58.13
2022-09-28T20:54:07.449Z,58.66
2022-09-28T20:56:39.026Z,58.11
2022-09-28T20:59:11.899Z,58.18
2022-09-28T21:01:39.207Z,58.42
2022-09-28T21:04:08.666Z,58.40
2022-09-28T21:06:38.170Z,58.12
2022-09-28T21:09:07.183Z,58.32
2022-09-28T21:11:37.618Z,58.45
2022-09-28T21:14:10.641Z,58.46
2022-09-28T21:16:38.896Z,58.57
2022-09-28T21:19:08.461Z,58.54
2022-09-28T21:21:37.070Z,58.15
2022-09-28T21:24:06.508Z,58.46
2022-09-28T21:26:33.675Z,58.32
2022-09-28T21:29:11.875Z,58.33
2022-09-28T21:34:27.451Z,58.36
2022-09-28T21:37:04.561Z,58.33
2022-09-28T21:39:33.404Z,58.50
2022-09-28T21:42:01.753Z,58.35
2022-09-28T21:44:28.714Z,58.50
2022-09-28T21:46:56.618Z,57.99
2022-09-28T21:49:25.447Z,58.17
2022-09-28T21:51:57.609Z,58.24
2022-09-28T21:54:28.866Z,58.58
2022-09-28T21:57:06.719Z,58.77
2022-09-28T21:59:36.941Z,58.34
2022-09-28T22:02:15.071Z,58.49
2022-09-28T22:04:42.229Z,58.81
2022-09-28T22:07:15.056Z,58.41
2022-09-28T22:09:52.770Z,58.34
2022-09-28T22:12:22.547Z,58.77
2022-09-28T22:14:57.420Z,58.33
2022-09-28T22:17:24.568Z,58.40
2022-09-28T22:19:54.227Z,58.73
2022-09-28T22:22:25.206Z,58.23
2022-09-28T22:24:57.446Z,58.18
2022-09-28T22:27:24.555Z,58.76
2022-09-28T22:29:52.992Z,58.42
2022-09-28T22:32:21.971Z,58.28
2022-09-28T22:34:50.566Z,58.44
2022-09-28T22:37:20.202Z,58.26
2022-09-28T22:39:54.605Z,58.66
2022-09-28T22:42:27.677Z,58.25
2022-09-28T22:44:55.522Z,58.35
2022-09-28T22:47:34.360Z,58.53
2022-09-28T22:50:02.168Z,58.43
2022-09-28T22:52:34.800Z,58.58
2022-09-28T22:55:06.155Z,58.36
2022-09-28T22:57:40.968Z,58.31
2022-09-28T23:00:10.339Z,58.47
2022-09-28T23:02:45.866Z,58.40
2022-09-28T23:05:14.723Z,58.39
2022-09-28T23:07:47.976Z,58.63
2022-09-28T23:10:18.435Z,58.72
2022-09-28T23:13:02.565Z,58.30
2022-09-28T23:15:35.023Z,58.60
2022-09-28T23:18:02.133Z,58.77
2022-09-28T23:20:29.034Z,58.52
2022-09-28T23:23:02.887Z,58.43
2022-09-28T23:25:29.762Z,58.21
2022-09-28T23:27:56.662Z,58.46
2022-09-28T23:30:26.220Z,58.63
2022-09-28T23:32:55.019Z,58.40
2022-09-28T23:35:24.536Z,58.18
2022-09-28T23:37:52.568Z,58.63
2022-09-28T23:40:19.509Z,58.90
2022-09-28T23:42:50.233Z,58.46
2022-09-28T23:45:21.692Z,58.36
2022-09-28T23:48:03.885Z,58.31
2022-09-28T23:50:30.765Z,58.23
2022-09-28T23:52:58.460Z,58.19
2022-09-28T23:55:29.001Z,58.27
2022-09-28T23:58:01.101Z,58.43
